createdAt,value
2022-09-06T00:01:18.473Z,57.87
2022-09-06T00:03:47.008Z,57.78
2022-09-06T00:06:18.660Z,57.78
2022-09-06T00:08:49.332Z,57.73
2022-09-06T00:11:19.161Z,57.65
2022-09-06T00:13:48.671Z,57.69
2022-09-06T00:16:21.470Z,57.75
2022-09-06T00:18:54.031Z,57.78
2022-09-06T00:21:25.880Z,57.82
2022-09-06T00:23:55.259Z,57.88
2022-09-06T00:26:24.010Z,57.96
2022-09-06T00:28:53.070Z,57.98
2022-09-06T00:31:24.745Z,58.11
2022-09-06T00:33:54.203Z,58.15
2022-09-06T00:36:23.157Z,58.35
2022-09-06T00:38:51.778Z,58.52
2022-09-06T00:41:21.594Z,58.63
2022-09-06T00:43:50.559Z,58.63
2022-09-06T00:46:23.249Z,58.63
2022-09-06T00:48:59.303Z,58.62
2022-09-06T00:51:29.829Z,59.04
2022-09-06T00:53:59.717Z,59.18
2022-09-06T00:56:29.381Z,59.74
2022-09-06T00:58:58.872Z,59.85
2022-09-06T01:01:28.571Z,59.94
2022-09-06T01:03:57.657Z,60.23
2022-09-06T01:06:35.141Z,60.29
2022-09-06T01:09:24.816Z,60.65
2022-09-06T01:12:14.615Z,60.97
2022-09-06T01:14:55.780Z,60.65
2022-09-06T01:17:56.933Z,61.02
2022-09-06T01:20:42.312Z,61.18
2022-09-06T01:23:48.818Z,61.27
2022-09-06T01:26:55.141Z,61.56
2022-09-06T01:29:37.427Z,61.51
2022-09-06T01:32:55.875Z,62.37
2022-09-06T01:35:58.282Z,62.67
2022-09-06T01:38:28.126Z,62.67
2022-09-06T01:40:57.124Z,62.84
2022-09-06T01:43:35.895Z,62.92
2022-09-06T01:46:20.572Z,63.17
2022-09-06T01:48:57.981Z,63.46
2022-09-06T01:51:41.082Z,63.74
2022-09-06T01:54:34.912Z,63.68
2022-09-06T01:57:28.195Z,64.05
2022-09-06T02:00:11.777Z,64.31
2022-09-06T02:03:06.686Z,64.33
2022-09-06T02:05:52.488Z,64.21
2022-09-06T02:08:26.986Z,64.92
2022-09-06T02:11:00.089Z,65.00
2022-09-06T02:13:43.127Z,64.86
2022-09-06T02:16:18.403Z,65.12
2022-09-06T02:19:27.067Z,64.95
2022-09-06T02:21:58.370Z,65.22
2022-09-06T02:24:31.960Z,65.44
2022-09-06T02:27:01.406Z,65.45
2022-09-06T02:29:30.887Z,65.91
2022-09-06T02:32:19.645Z,66.05
2022-09-06T02:34:50.661Z,66.79
2022-09-06T02:37:19.854Z,67.03
2022-09-06T02:39:48.550Z,67.09
2022-09-06T02:42:18.034Z,67.11
2022-09-06T02:44:46.679Z,67.13
2022-09-06T02:47:16.148Z,67.89
2022-09-06T02:49:45.346Z,68.55
2022-09-06T02:52:14.040Z,67.97
2022-09-06T02:54:42.899Z,67.98
2022-09-06T02:57:15.046Z,67.97
2022-09-06T02:59:44.031Z,67.75
2022-09-06T03:02:13.449Z,67.75
2022-09-06T03:04:42.087Z,68.22
2022-09-06T03:07:10.729Z,68.32
2022-09-06T03:09:39.821Z,68.66
2022-09-06T03:12:08.761Z,69.53
2022-09-06T03:14:41.645Z,69.55
2022-09-06T03:17:17.144Z,69.66
2022-09-06T03:19:46.863Z,69.91
2022-09-06T03:22:15.735Z,69.60
2022-09-06T03:24:45.848Z,70.06
2022-09-06T03:27:14.850Z,69.97
2022-09-06T03:29:43.588Z,69.92
2022-09-06T03:32:12.530Z,69.89
2022-09-06T03:34:41.408Z,69.99
2022-09-06T03:37:10.807Z,71.03
2022-09-06T03:39:39.873Z,70.44
2022-09-06T03:42:10.738Z,71.32
2022-09-06T03:44:39.942Z,70.65
2022-09-06T03:47:08.855Z,70.57
2022-09-06T03:49:37.424Z,72.11
2022-09-06T03:52:06.839Z,71.50
2022-09-06T03:54:35.719Z,72.17
2022-09-06T03:57:04.534Z,72.18
2022-09-06T03:59:33.683Z,72.72
2022-09-06T04:02:02.736Z,72.87
2022-09-06T04:04:31.330Z,72.39
2022-09-06T04:07:00.338Z,72.66
2022-09-06T04:09:29.599Z,73.37
2022-09-06T04:11:58.199Z,74.34
2022-09-06T04:14:27.469Z,74.05
2022-09-06T04:16:56.396Z,73.42
2022-09-06T04:19:25.023Z,72.96
2022-09-06T04:21:53.920Z,73.33
2022-09-06T04:24:23.253Z,72.95
2022-09-06T04:26:51.876Z,73.18
2022-09-06T04:29:20.555Z,73.51
2022-09-06T04:31:49.925Z,74.04
2022-09-06T04:34:20.119Z,73.47
2022-09-06T04:36:48.996Z,73.38
2022-09-06T04:39:18.441Z,73.57
2022-09-06T04:41:47.101Z,73.91
2022-09-06T04:44:16.044Z,73.99
2022-09-06T04:46:45.159Z,74.75
2022-09-06T04:49:13.701Z,74.81
2022-09-06T04:51:42.451Z,75.27
2022-09-06T04:54:11.689Z,74.93
2022-09-06T04:56:40.822Z,74.47
2022-09-06T04:59:09.608Z,75.29
2022-09-06T05:01:38.319Z,75.97
2022-09-06T05:04:07.239Z,75.62
2022-09-06T05:06:36.291Z,75.32
2022-09-06T05:09:05.014Z,74.91
2022-09-06T05:11:34.117Z,74.95
2022-09-06T05:14:03.525Z,75.62
2022-09-06T05:16:32.522Z,75.36
2022-09-06T05:19:01.136Z,75.75
2022-09-06T05:21:30.320Z,75.53
2022-09-06T05:23:59.219Z,76.58
2022-09-06T05:26:27.996Z,76.64
2022-09-06T05:28:57.388Z,76.59
2022-09-06T05:31:29.424Z,77.41
2022-09-06T05:33:58.714Z,77.57
2022-09-06T05:36:29.278Z,77.05
2022-09-06T05:38:59.125Z,76.89
2022-09-06T05:41:28.408Z,77.06
2022-09-06T05:43:57.010Z,77.05
2022-09-06T05:46:27.502Z,77.14
2022-09-06T05:49:01.440Z,78.02
2022-09-06T05:51:30.238Z,78.37
2022-09-06T05:53:59.580Z,78.61
2022-09-06T05:56:28.207Z,79.29
2022-09-06T05:58:56.994Z,80.02
2022-09-06T06:01:28.515Z,79.80
2022-09-06T06:04:04.230Z,79.82
2022-09-06T06:06:34.996Z,80.53
2022-09-06T06:09:04.214Z,79.66
2022-09-06T06:11:33.059Z,79.71
2022-09-06T06:14:03.808Z,79.44
2022-09-06T06:16:33.219Z,79.80
2022-09-06T06:19:03.071Z,78.89
2022-09-06T06:21:39.882Z,79.52
2022-09-06T06:24:09.024Z,79.70
2022-09-06T06:26:38.351Z,81.17
2022-09-06T06:29:09.996Z,80.90
2022-09-06T06:31:39.659Z,80.06
2022-09-06T06:34:09.467Z,80.92
2022-09-06T06:36:40.384Z,79.95
2022-09-06T06:39:09.429Z,80.29
2022-09-06T06:41:38.111Z,80.40
2022-09-06T06:44:19.199Z,80.90
2022-09-06T06:46:47.891Z,80.41
2022-09-06T06:49:16.485Z,80.18
2022-09-06T06:51:45.523Z,79.96
2022-09-06T06:54:15.358Z,79.63
2022-09-06T06:56:45.941Z,79.76
2022-09-06T06:59:14.951Z,80.23
2022-09-06T07:01:43.988Z,81.05
2022-09-06T07:04:14.644Z,80.82
2022-09-06T07:12:32.940Z,79.61
2022-09-06T07:15:01.533Z,79.47
2022-09-06T07:17:30.216Z,79.55
2022-09-06T07:20:15.259Z,79.65
2022-09-06T07:22:44.465Z,79.78
2022-09-06T07:25:20.395Z,79.91
2022-09-06T07:27:59.046Z,80.80
2022-09-06T07:30:31.137Z,80.28
2022-09-06T07:33:01.263Z,81.87
2022-09-06T07:35:29.763Z,81.42
2022-09-06T07:38:00.723Z,80.73
2022-09-06T07:40:31.767Z,82.40
2022-09-06T07:43:00.859Z,81.62
2022-09-06T07:45:29.525Z,81.89
2022-09-06T07:48:00.294Z,80.09
2022-09-06T07:50:47.984Z,80.62
2022-09-06T07:53:24.669Z,80.54
2022-09-06T07:56:19.621Z,80.65
2022-09-06T07:59:08.306Z,79.43
2022-09-06T08:01:49.489Z,81.09
2022-09-06T08:04:20.574Z,82.15
2022-09-06T08:09:41.356Z,81.71
2022-09-06T08:12:12.359Z,82.30
2022-09-06T08:14:41.022Z,79.61
2022-09-06T08:17:10.553Z,80.77
2022-09-06T08:19:39.730Z,81.08
2022-09-06T08:22:08.973Z,81.29
2022-09-06T08:24:37.894Z,81.99
2022-09-06T08:27:10.042Z,81.65
2022-09-06T08:29:40.361Z,81.26
2022-09-06T08:32:09.261Z,81.36
2022-09-06T08:34:38.155Z,82.73
2022-09-06T08:37:07.205Z,82.41
2022-09-06T08:39:36.557Z,82.07
2022-09-06T08:42:07.621Z,82.13
2022-09-06T08:47:27.504Z,82.18
2022-09-06T08:50:01.470Z,81.91
2022-09-06T08:52:41.825Z,81.96
2022-09-06T08:55:25.708Z,81.37
2022-09-06T08:58:18.874Z,81.87
2022-09-06T09:00:53.250Z,81.32
2022-09-06T09:03:39.225Z,81.20
2022-09-06T09:06:10.696Z,81.18
2022-09-06T09:08:44.701Z,81.36
2022-09-06T09:11:19.497Z,81.09
2022-09-06T09:13:56.737Z,81.02
2022-09-06T09:16:26.678Z,79.94
2022-09-06T09:19:02.785Z,79.96
2022-09-06T09:21:34.826Z,79.61
2022-09-06T09:24:13.145Z,80.20
2022-09-06T09:26:54.970Z,79.27
2022-09-06T09:29:27.965Z,79.95
2022-09-06T09:31:57.764Z,80.01
2022-09-06T09:34:40.053Z,79.82
2022-09-06T09:40:26.321Z,78.72
2022-09-06T09:43:10.248Z,78.53
2022-09-06T09:45:40.788Z,77.83
2022-09-06T09:48:28.511Z,77.62
2022-09-06T09:51:23.878Z,76.75
2022-09-06T09:53:59.274Z,77.22
2022-09-06T09:56:39.191Z,76.41
2022-09-06T09:59:31.315Z,74.94
2022-09-06T10:02:02.880Z,74.99
2022-09-06T10:07:14.228Z,72.73
2022-09-06T10:09:58.169Z,72.98
2022-09-06T10:12:34.343Z,72.92
2022-09-06T10:15:07.101Z,73.02
2022-09-06T10:17:43.590Z,72.71
2022-09-06T10:20:15.867Z,73.18
2022-09-06T10:23:09.400Z,72.92
2022-09-06T10:25:53.730Z,71.81
2022-09-06T10:28:39.351Z,70.66
2022-09-06T10:31:13.445Z,70.29
2022-09-06T10:34:04.325Z,69.86
2022-09-06T10:36:38.988Z,69.42
2022-09-06T10:39:33.636Z,69.41
2022-09-06T10:42:12.045Z,69.25
2022-09-06T10:45:03.833Z,68.88
2022-09-06T10:47:47.454Z,68.82
2022-09-06T10:50:17.481Z,68.62
2022-09-06T10:52:49.375Z,67.73
2022-09-06T10:55:19.968Z,66.47
2022-09-06T10:58:17.884Z,67.09
2022-09-06T11:00:53.704Z,66.48
2022-09-06T11:03:55.665Z,65.34
2022-09-06T11:06:42.707Z,65.21
2022-09-06T11:09:31.937Z,64.59
2022-09-06T11:12:16.466Z,64.34
2022-09-06T11:14:46.679Z,64.64
2022-09-06T11:17:35.044Z,64.19
2022-09-06T11:20:07.297Z,63.87
2022-09-06T11:22:39.033Z,63.58
2022-09-06T11:25:27.662Z,63.33
2022-09-06T11:27:59.873Z,63.99
2022-09-06T11:30:30.617Z,63.72
2022-09-06T11:33:30.119Z,63.27
2022-09-06T11:36:39.274Z,62.78
2022-09-06T11:39:10.167Z,62.44
2022-09-06T11:41:41.673Z,61.75
2022-09-06T11:44:11.318Z,62.18
2022-09-06T11:46:43.255Z,61.72
2022-09-06T11:49:15.465Z,61.04
2022-09-06T11:51:45.647Z,61.19
2022-09-06T11:54:23.355Z,60.51
2022-09-06T11:57:15.337Z,59.86
2022-09-06T12:00:02.115Z,60.39
2022-09-06T12:02:41.863Z,59.20
2022-09-06T12:05:12.276Z,59.16
2022-09-06T12:08:23.267Z,58.95
2022-09-06T12:11:03.666Z,58.83
2022-09-06T12:13:41.198Z,58.75
2022-09-06T12:16:14.797Z,58.74
2022-09-06T12:18:43.491Z,58.44
2022-09-06T12:21:32.225Z,58.90
2022-09-06T12:24:02.417Z,58.72
2022-09-06T12:26:56.121Z,58.37
2022-09-06T12:29:27.286Z,58.15
2022-09-06T12:31:58.254Z,58.09
2022-09-06T12:34:36.092Z,58.23
2022-09-06T12:37:09.572Z,58.28
2022-09-06T12:39:38.477Z,58.32
2022-09-06T12:42:18.944Z,58.00
2022-09-06T12:44:55.502Z,57.10
2022-09-06T12:47:36.176Z,56.89
2022-09-06T12:50:17.556Z,56.53
2022-09-06T12:52:56.961Z,56.11
2022-09-06T12:55:35.095Z,55.94
2022-09-06T12:58:08.574Z,56.09
2022-09-06T13:00:45.427Z,55.95
2022-09-06T13:03:35.873Z,55.69
2022-09-06T13:06:06.960Z,54.96
2022-09-06T13:08:48.487Z,54.80
2022-09-06T13:11:23.956Z,55.09
2022-09-06T13:13:55.303Z,54.74
2022-09-06T13:16:35.611Z,54.84
2022-09-06T13:19:14.067Z,54.25
2022-09-06T13:21:45.326Z,54.67
2022-09-06T13:24:26.375Z,54.31
2022-09-06T13:26:55.376Z,53.44
2022-09-06T13:29:31.097Z,53.15
2022-09-06T13:32:02.816Z,53.52
2022-09-06T13:34:34.567Z,53.15
2022-09-06T13:37:10.671Z,53.55
2022-09-06T13:39:46.897Z,53.09
2022-09-06T13:42:38.603Z,53.28
2022-09-06T13:45:37.076Z,53.11
2022-09-06T13:48:26.149Z,52.72
2022-09-06T13:50:56.430Z,53.05
2022-09-06T13:53:25.664Z,53.56
2022-09-06T13:55:54.485Z,53.24
2022-09-06T13:58:24.901Z,52.68
2022-09-06T14:00:55.027Z,52.48
2022-09-06T14:03:42.859Z,52.50
2022-09-06T14:06:11.737Z,52.81
2022-09-06T14:09:09.710Z,52.76
2022-09-06T14:11:29.507Z,52.53
2022-09-06T14:13:58.484Z,52.75
2022-09-06T14:16:27.900Z,52.53
2022-09-06T14:18:57.078Z,52.51
2022-09-06T14:21:26.185Z,52.21
2022-09-06T14:23:54.925Z,52.06
2022-09-06T14:26:23.755Z,51.49
2022-09-06T14:28:52.718Z,51.81
2022-09-06T14:31:26.585Z,51.49
2022-09-06T14:33:57.221Z,51.74
2022-09-06T14:36:27.677Z,51.46
2022-09-06T14:38:58.985Z,51.54
2022-09-06T14:41:28.448Z,51.40
2022-09-06T14:43:59.435Z,51.23
2022-09-06T14:46:29.248Z,51.32
2022-09-06T14:49:10.576Z,51.02
2022-09-06T14:51:40.207Z,51.38
2022-09-06T14:54:11.863Z,51.27
2022-09-06T14:56:42.443Z,51.26
2022-09-06T14:59:12.574Z,51.19
2022-09-06T15:01:41.899Z,51.22
2022-09-06T15:04:12.364Z,51.13
2022-09-06T15:06:45.630Z,50.95
2022-09-06T15:09:17.806Z,50.85
2022-09-06T15:11:52.584Z,50.86
2022-09-06T15:14:24.278Z,50.80
2022-09-06T15:16:57.442Z,50.89
2022-09-06T15:19:28.635Z,50.64
2022-09-06T15:21:58.657Z,50.67
2022-09-06T15:24:28.925Z,50.63
2022-09-06T15:26:59.565Z,50.67
2022-09-06T15:29:28.561Z,50.73
2022-09-06T15:31:57.735Z,50.59
2022-09-06T15:34:27.284Z,50.60
2022-09-06T15:36:57.476Z,50.44
2022-09-06T15:39:26.033Z,50.55
2022-09-06T15:41:54.831Z,50.52
2022-09-06T15:44:23.649Z,50.57
2022-09-06T15:46:54.340Z,50.67
2022-09-06T15:49:28.910Z,50.59
2022-09-06T15:52:01.123Z,50.55
2022-09-06T15:54:49.395Z,50.57
2022-09-06T15:57:18.669Z,50.58
2022-09-06T15:59:47.674Z,50.55
2022-09-06T16:02:16.506Z,50.55
2022-09-06T16:04:46.718Z,50.58
2022-09-06T16:07:15.274Z,50.59
2022-09-06T16:09:44.330Z,50.58
2022-09-06T16:12:13.593Z,50.67
2022-09-06T16:14:42.363Z,50.71
2022-09-06T16:17:13.243Z,50.74
2022-09-06T16:19:42.019Z,50.70
2022-09-06T16:22:10.721Z,50.71
2022-09-06T16:24:39.952Z,50.78
2022-09-06T16:27:09.270Z,50.86
2022-09-06T16:29:38.679Z,50.80
2022-09-06T16:32:08.153Z,50.82
2022-09-06T16:34:40.980Z,50.90
2022-09-06T16:37:10.255Z,50.90
2022-09-06T16:39:39.430Z,50.91
2022-09-06T16:42:08.695Z,50.96
2022-09-06T16:44:38.610Z,50.96
2022-09-06T16:47:07.579Z,50.93
2022-09-06T16:49:36.389Z,51.03
2022-09-06T16:52:05.018Z,51.12
2022-09-06T16:54:34.168Z,51.03
2022-09-06T16:57:03.082Z,51.09
2022-09-06T16:59:31.576Z,51.08
2022-09-06T17:02:13.905Z,51.08
2022-09-06T17:05:05.039Z,51.25
2022-09-06T17:07:55.934Z,51.27
2022-09-06T17:10:45.430Z,51.35
2022-09-06T17:13:35.296Z,51.32
2022-09-06T17:16:39.500Z,51.38
2022-09-06T17:19:30.222Z,51.41
2022-09-06T17:22:21.576Z,51.46
2022-09-06T17:25:19.721Z,51.50
2022-09-06T17:28:09.644Z,51.68
2022-09-06T17:31:00.927Z,51.72
2022-09-06T17:33:57.761Z,51.72
2022-09-06T17:36:57.721Z,51.79
2022-09-06T17:39:37.843Z,51.83
2022-09-06T17:42:27.540Z,51.88
2022-09-06T17:44:56.163Z,51.94
2022-09-06T17:47:25.372Z,51.97
2022-09-06T17:49:54.359Z,52.11
2022-09-06T17:52:23.112Z,52.16
2022-09-06T17:54:52.403Z,52.18
2022-09-06T17:57:21.687Z,52.26
2022-09-06T17:59:50.354Z,52.26
2022-09-06T18:02:19.297Z,52.40
2022-09-06T18:04:48.571Z,52.39
2022-09-06T18:07:17.841Z,52.62
2022-09-06T18:09:47.033Z,52.65
2022-09-06T18:12:16.218Z,52.76
2022-09-06T18:14:44.760Z,52.86
2022-09-06T18:17:13.400Z,52.87
2022-09-06T18:19:42.752Z,52.92
2022-09-06T18:22:12.656Z,53.04
2022-09-06T18:24:41.208Z,53.16
2022-09-06T18:27:10.492Z,53.25
2022-09-06T18:29:39.552Z,53.31
2022-09-06T18:32:08.406Z,53.35
2022-09-06T18:34:38.349Z,53.33
2022-09-06T18:37:06.993Z,53.46
2022-09-06T18:39:35.617Z,53.47
2022-09-06T18:42:10.902Z,53.39
2022-09-06T18:44:39.859Z,53.61
2022-09-06T18:47:09.828Z,53.57
2022-09-06T18:49:43.807Z,53.70
2022-09-06T18:52:14.072Z,53.74
2022-09-06T18:54:45.341Z,53.83
2022-09-06T18:57:16.293Z,53.98
2022-09-06T18:59:44.888Z,54.11
2022-09-06T19:02:13.928Z,54.08
2022-09-06T19:04:43.852Z,54.14
2022-09-06T19:07:12.783Z,54.22
2022-09-06T19:09:42.330Z,54.33
2022-09-06T19:12:12.332Z,54.41
2022-09-06T19:14:41.202Z,54.43
2022-09-06T19:17:10.095Z,54.46
2022-09-06T19:19:39.045Z,54.45
2022-09-06T19:22:10.030Z,54.52
2022-09-06T19:24:40.283Z,54.52
2022-09-06T19:27:10.892Z,54.64
2022-09-06T19:29:39.371Z,54.81
2022-09-06T19:32:08.977Z,54.83
2022-09-06T19:34:38.434Z,54.88
2022-09-06T19:37:07.628Z,54.85
2022-09-06T19:39:37.437Z,55.02
2022-09-06T19:42:07.851Z,55.06
2022-09-06T19:44:36.317Z,55.21
2022-09-06T19:47:05.895Z,55.17
2022-09-06T19:49:35.285Z,55.29
2022-09-06T19:52:10.151Z,55.32
2022-09-06T19:54:39.801Z,55.51
2022-09-06T19:57:08.534Z,55.65
2022-09-06T19:59:37.545Z,55.73
2022-09-06T20:02:06.955Z,55.74
2022-09-06T20:04:35.712Z,55.77
2022-09-06T20:07:04.383Z,55.97
2022-09-06T20:09:33.486Z,55.99
2022-09-06T20:12:03.157Z,56.01
2022-09-06T20:14:32.830Z,56.01
2022-09-06T20:17:22.679Z,56.11
2022-09-06T20:19:52.156Z,56.26
2022-09-06T20:22:22.256Z,56.32
2022-09-06T20:24:54.047Z,56.34
2022-09-06T20:27:23.261Z,56.34
2022-09-06T20:29:52.379Z,56.63
2022-09-06T20:32:21.300Z,56.69
2022-09-06T20:34:50.725Z,56.80
2022-09-06T20:37:21.416Z,56.90
2022-09-06T20:39:50.459Z,56.94
2022-09-06T20:42:19.821Z,56.99
2022-09-06T20:44:48.627Z,57.07
2022-09-06T20:47:17.547Z,56.98
2022-09-06T20:49:46.492Z,57.03
2022-09-06T20:52:15.287Z,57.14
2022-09-06T20:54:44.377Z,57.23
2022-09-06T20:57:13.390Z,57.28
2022-09-06T20:59:42.234Z,57.21
2022-09-06T21:02:11.105Z,57.27
2022-09-06T21:04:40.004Z,57.29
2022-09-06T21:07:09.363Z,57.30
2022-09-06T21:09:38.091Z,57.30
2022-09-06T21:12:06.953Z,57.43
2022-09-06T21:14:35.960Z,57.32
2022-09-06T21:17:04.918Z,57.44
2022-09-06T21:19:36.786Z,57.53
2022-09-06T21:22:06.136Z,57.68
2022-09-06T21:24:35.274Z,57.71
2022-09-06T21:27:04.207Z,57.82
2022-09-06T21:29:33.588Z,57.77
2022-09-06T21:32:03.089Z,57.88
2022-09-06T21:34:31.716Z,58.01
2022-09-06T21:37:00.296Z,57.98
2022-09-06T21:39:29.790Z,57.98
2022-09-06T21:41:58.272Z,58.09
2022-09-06T21:44:27.137Z,58.26
2022-09-06T21:46:57.081Z,58.27
2022-09-06T21:49:25.944Z,58.44
2022-09-06T21:51:54.580Z,58.33
2022-09-06T21:54:24.107Z,58.48
2022-09-06T21:56:52.652Z,58.39
2022-09-06T21:59:21.334Z,58.46
2022-09-06T22:01:53.093Z,58.39
2022-09-06T22:04:21.941Z,58.53
2022-09-06T22:06:51.256Z,58.48
2022-09-06T22:09:20.123Z,58.58
2022-09-06T22:11:48.929Z,58.70
2022-09-06T22:14:17.736Z,58.66
2022-09-06T22:16:46.894Z,58.79
2022-09-06T22:19:15.824Z,58.77
2022-09-06T22:21:44.501Z,58.85
2022-09-06T22:24:15.990Z,58.89
2022-09-06T22:26:46.178Z,58.99
2022-09-06T22:29:15.872Z,59.12
2022-09-06T22:31:44.718Z,59.10
2022-09-06T22:34:13.867Z,59.25
2022-09-06T22:36:42.787Z,59.44
2022-09-06T22:39:11.404Z,59.40
2022-09-06T22:41:40.313Z,59.47
2022-09-06T22:44:09.500Z,59.59
2022-09-06T22:46:38.639Z,59.87
2022-09-06T22:49:07.708Z,59.92
2022-09-06T22:51:36.524Z,59.96
2022-09-06T22:54:06.201Z,60.08
2022-09-06T22:56:36.362Z,60.10
2022-09-06T22:59:06.209Z,60.22
2022-09-06T23:01:39.978Z,59.96
2022-09-06T23:04:10.096Z,60.09
2022-09-06T23:06:38.693Z,60.14
2022-09-06T23:09:07.833Z,60.12
2022-09-06T23:11:36.905Z,60.41
2022-09-06T23:14:06.013Z,60.54
2022-09-06T23:16:35.527Z,60.39
2022-09-06T23:19:05.597Z,60.41
2022-09-06T23:21:34.158Z,60.50
2022-09-06T23:24:03.273Z,60.62
2022-09-06T23:26:33.000Z,60.50
2022-09-06T23:29:01.679Z,60.64
2022-09-06T23:31:34.716Z,60.70
2022-09-06T23:34:03.892Z,60.64
2022-09-06T23:36:32.981Z,60.70
2022-09-06T23:39:02.984Z,60.78
2022-09-06T23:41:31.782Z,60.82
2022-09-06T23:44:01.112Z,60.73
2022-09-06T23:46:30.734Z,60.86
2022-09-06T23:49:02.404Z,60.89
2022-09-06T23:51:31.031Z,60.93
2022-09-06T23:54:00.335Z,60.84
2022-09-06T23:56:29.452Z,60.92
2022-09-06T23:58:58.221Z,61.08
